createdAt,value
2022-11-14T00:04:54.479Z,27.77
2022-11-14T00:09:56.346Z,29.77
2022-11-14T00:14:58.305Z,31.80
2022-11-14T00:20:00.122Z,25.88
2022-11-14T00:25:02.078Z,33.45
2022-11-14T00:30:04.250Z,31.50
2022-11-14T00:35:06.731Z,33.60
2022-11-14T00:40:08.981Z,26.23
2022-11-14T00:45:11.379Z,33.40
2022-11-14T00:50:13.334Z,24.58
2022-11-14T00:55:15.244Z,25.65
2022-11-14T01:00:17.216Z,19.95
2022-11-14T01:05:19.006Z,20.95
2022-11-14T01:10:21.519Z,16.92
2022-11-14T01:15:23.330Z,16.15
2022-11-14T01:20:25.410Z,20.50
2022-11-14T01:25:27.188Z,17.08
2022-11-14T01:30:29.027Z,16.88
2022-11-14T01:35:32.919Z,19.23
2022-11-14T01:40:35.088Z,16.88
2022-11-14T01:45:46.613Z,16.33
2022-11-14T01:50:54.459Z,19.85
2022-11-14T01:56:01.207Z,17.37
2022-11-14T02:01:03.399Z,17.08
2022-11-14T02:06:07.916Z,16.17
2022-11-14T02:11:13.559Z,16.13
2022-11-14T02:16:15.644Z,15.23
2022-11-14T02:21:17.618Z,13.63
2022-11-14T02:26:20.915Z,13.65
2022-11-14T02:31:22.870Z,15.48
2022-11-14T02:36:25.113Z,15.13
2022-11-14T02:41:26.888Z,12.00
2022-11-14T02:46:28.801Z,11.75
2022-11-14T02:51:30.593Z,10.68
2022-11-14T02:56:32.348Z,10.27
2022-11-14T03:01:34.153Z,11.90
2022-11-14T03:06:35.925Z,11.15
2022-11-14T03:11:39.073Z,10.00
2022-11-14T03:16:40.902Z,7.75
2022-11-14T03:21:42.808Z,7.57
2022-11-14T03:26:44.761Z,7.10
2022-11-14T03:31:46.670Z,6.70
2022-11-14T03:36:48.713Z,6.88
2022-11-14T03:41:50.589Z,7.00
2022-11-14T03:46:52.749Z,6.50
2022-11-14T03:51:54.502Z,7.13
2022-11-14T03:56:56.390Z,6.57
2022-11-14T04:01:58.257Z,6.63
2022-11-14T04:07:00.229Z,6.57
2022-11-14T04:12:02.190Z,6.93
2022-11-14T04:17:04.062Z,6.18
2022-11-14T04:22:06.327Z,6.88
2022-11-14T04:27:08.185Z,6.07
2022-11-14T04:32:10.018Z,6.82
2022-11-14T04:37:11.832Z,6.28
2022-11-14T04:42:14.066Z,5.82
2022-11-14T04:47:15.879Z,5.93
2022-11-14T04:52:17.665Z,6.50
2022-11-14T04:57:19.528Z,6.75
2022-11-14T05:02:21.471Z,6.50
2022-11-14T05:07:23.410Z,6.78
2022-11-14T05:12:25.335Z,7.35
2022-11-14T05:17:27.998Z,7.68
2022-11-14T05:22:29.870Z,9.30
2022-11-14T05:27:31.646Z,7.72
2022-11-14T05:32:33.506Z,7.68
2022-11-14T05:37:35.984Z,7.40
2022-11-14T05:42:37.907Z,8.80
2022-11-14T05:47:39.785Z,8.70
2022-11-14T05:52:41.760Z,7.68
2022-11-14T05:57:43.749Z,8.05
2022-11-14T06:02:46.227Z,9.02
2022-11-14T06:07:48.133Z,11.30
2022-11-14T06:12:50.267Z,12.27
2022-11-14T06:17:55.471Z,10.27
2022-11-14T06:22:57.446Z,8.55
2022-11-14T06:27:59.539Z,8.70
2022-11-14T06:33:01.581Z,7.82
2022-11-14T06:38:03.389Z,8.13
2022-11-14T06:43:05.143Z,9.30
2022-11-14T06:48:07.113Z,9.68
2022-11-14T06:53:08.921Z,8.13
2022-11-14T06:58:10.728Z,8.02
2022-11-14T07:03:12.638Z,10.18
2022-11-14T07:08:20.688Z,12.88
2022-11-14T07:13:22.945Z,13.00
2022-11-14T07:18:24.812Z,10.77
2022-11-14T07:23:27.330Z,9.60
2022-11-14T07:28:30.049Z,13.52
2022-11-14T07:33:32.684Z,10.07
2022-11-14T07:38:36.069Z,10.25
2022-11-14T07:43:38.018Z,9.43
2022-11-14T07:48:40.230Z,10.43
2022-11-14T07:53:42.274Z,10.82
2022-11-14T07:58:44.031Z,10.30
2022-11-14T08:03:46.488Z,11.73
2022-11-14T08:08:48.359Z,14.23
2022-11-14T08:13:50.168Z,13.02
2022-11-14T08:18:52.077Z,12.85
2022-11-14T08:23:53.927Z,11.65
2022-11-14T08:28:55.855Z,12.52
2022-11-14T08:33:57.800Z,10.35
2022-11-14T08:39:01.978Z,11.90
2022-11-14T08:44:04.195Z,12.02
2022-11-14T08:49:06.126Z,11.85
2022-11-14T08:54:07.994Z,14.10
2022-11-14T08:59:09.737Z,9.95
2022-11-14T09:04:11.686Z,17.98
2022-11-14T09:09:13.506Z,13.55
2022-11-14T09:14:15.285Z,11.98
2022-11-14T09:19:17.179Z,9.30
2022-11-14T09:24:18.988Z,7.63
2022-11-14T09:29:20.831Z,6.93
2022-11-14T09:34:22.631Z,6.00
2022-11-14T09:39:24.417Z,6.03
2022-11-14T09:44:48.693Z,9.52
2022-11-14T09:49:53.554Z,10.77
2022-11-14T09:55:18.639Z,7.47
2022-11-14T10:00:26.314Z,7.30
2022-11-14T10:05:36.966Z,12.23
2022-11-14T10:11:04.391Z,8.18
2022-11-14T10:16:43.417Z,8.35
2022-11-14T10:21:50.746Z,7.78
2022-11-14T10:27:02.389Z,10.68
2022-11-14T10:32:25.483Z,8.75
2022-11-14T10:37:30.195Z,8.93
2022-11-14T10:42:39.456Z,11.18
2022-11-14T10:47:48.606Z,9.23
2022-11-14T10:52:56.213Z,8.50
2022-11-14T10:57:58.191Z,10.02
2022-11-14T11:03:00.079Z,8.25
2022-11-14T11:08:41.897Z,9.30
2022-11-14T11:13:53.215Z,7.88
2022-11-14T11:19:24.361Z,7.00
2022-11-14T11:24:33.318Z,8.43
2022-11-14T11:29:35.137Z,6.63
2022-11-14T11:34:36.993Z,10.43
2022-11-14T11:39:45.435Z,11.70
2022-11-14T11:44:53.913Z,7.47
2022-11-14T11:49:56.937Z,6.75
2022-11-14T11:55:05.187Z,6.32
2022-11-14T12:00:21.867Z,9.73
2022-11-14T12:05:41.719Z,6.32
2022-11-14T12:10:45.858Z,9.73
2022-11-14T12:15:59.626Z,8.32
2022-11-14T12:21:36.538Z,9.25
2022-11-14T12:26:44.894Z,7.50
2022-11-14T12:31:47.951Z,7.22
2022-11-14T12:36:50.011Z,7.30
2022-11-14T12:42:04.311Z,9.88
2022-11-14T12:47:06.023Z,6.97
2022-11-14T12:52:39.561Z,6.40
2022-11-14T12:57:50.150Z,5.60
2022-11-14T13:03:08.424Z,5.40
2022-11-14T13:08:27.747Z,5.47
2022-11-14T13:13:48.770Z,4.82
2022-11-14T13:19:13.819Z,4.78
2022-11-14T13:24:19.032Z,7.00
2022-11-14T13:29:39.125Z,5.18
2022-11-14T13:34:44.084Z,4.40
2022-11-14T13:39:51.950Z,3.90
2022-11-14T13:44:53.668Z,4.17
2022-11-14T13:50:01.279Z,5.05
2022-11-14T13:55:04.330Z,4.10
2022-11-14T14:00:07.137Z,4.00
2022-11-14T14:05:25.999Z,4.35
2022-11-14T14:10:27.751Z,3.88
2022-11-14T14:15:56.131Z,4.03
2022-11-14T14:21:06.879Z,4.10
2022-11-14T14:26:26.686Z,3.90
2022-11-14T14:31:38.024Z,3.75
2022-11-14T14:36:50.414Z,4.65
2022-11-14T14:41:55.415Z,4.30
2022-11-14T14:46:57.676Z,4.50
2022-11-14T14:51:59.494Z,5.00
2022-11-14T14:57:02.724Z,4.15
2022-11-14T15:02:04.554Z,3.90
2022-11-14T15:07:17.519Z,4.00
2022-11-14T15:12:19.872Z,4.03
2022-11-14T15:17:23.023Z,4.00
2022-11-14T15:22:29.013Z,4.57
2022-11-14T15:27:32.781Z,5.05
2022-11-14T15:32:34.602Z,3.78
2022-11-14T15:37:36.546Z,4.40
2022-11-14T15:42:38.344Z,4.38
2022-11-14T15:47:40.643Z,4.60
2022-11-14T15:53:30.656Z,4.15
2022-11-14T15:58:33.061Z,5.85
2022-11-14T16:03:35.269Z,5.07
2022-11-14T16:08:37.048Z,5.45
2022-11-14T16:13:39.190Z,5.65
2022-11-14T16:18:41.070Z,5.85
2022-11-14T16:23:42.917Z,4.88
2022-11-14T16:28:44.688Z,5.53
2022-11-14T16:33:46.699Z,5.65
2022-11-14T16:38:52.311Z,6.05
2022-11-14T16:43:56.307Z,5.50
2022-11-14T16:48:58.302Z,6.50
2022-11-14T16:54:00.122Z,6.45
2022-11-14T16:59:02.127Z,5.20
2022-11-14T17:04:04.478Z,5.38
2022-11-14T17:09:06.395Z,4.65
2022-11-14T17:14:08.406Z,5.32
2022-11-14T17:19:10.287Z,5.38
2022-11-14T17:24:12.232Z,6.63
2022-11-14T17:29:14.161Z,5.97
2022-11-14T17:34:15.923Z,7.60
2022-11-14T17:39:17.705Z,7.60
2022-11-14T17:44:19.461Z,7.70
2022-11-14T17:49:21.225Z,9.10
2022-11-14T17:54:23.014Z,8.63
2022-11-14T17:59:24.887Z,7.38
2022-11-14T18:04:26.821Z,7.50
2022-11-14T18:09:29.619Z,6.55
2022-11-14T18:14:31.414Z,6.55
2022-11-14T18:19:33.319Z,8.40
2022-11-14T18:24:35.180Z,7.82
2022-11-14T18:29:37.090Z,8.60
2022-11-14T18:34:40.744Z,11.23
2022-11-14T18:39:42.499Z,10.52
2022-11-14T18:44:44.450Z,10.93
2022-11-14T18:49:46.341Z,10.88
2022-11-14T18:54:48.169Z,12.00
2022-11-14T18:59:49.977Z,11.43
2022-11-14T19:04:51.969Z,12.65
2022-11-14T19:09:53.950Z,12.75
2022-11-14T19:14:56.669Z,16.38
2022-11-14T19:19:58.666Z,16.42
2022-11-14T19:25:00.447Z,13.57
2022-11-14T19:30:02.657Z,13.93
2022-11-14T19:35:04.675Z,15.50
2022-11-14T19:40:07.197Z,16.73
2022-11-14T19:45:09.343Z,13.85
2022-11-14T19:50:11.125Z,12.68
2022-11-14T19:55:13.326Z,12.25
2022-11-14T20:00:15.820Z,10.52
2022-11-14T20:05:18.327Z,10.38
2022-11-14T20:10:20.184Z,9.75
2022-11-14T20:15:22.357Z,11.00
2022-11-14T20:20:24.185Z,10.25
2022-11-14T20:25:26.038Z,10.50
2022-11-14T20:30:28.309Z,10.63
2022-11-14T20:35:30.018Z,10.32
2022-11-14T20:40:32.703Z,8.63
2022-11-14T20:45:34.631Z,8.30
2022-11-14T20:50:36.529Z,6.95
2022-11-14T20:55:38.295Z,8.00
2022-11-14T21:00:40.033Z,5.55
2022-11-14T21:05:42.461Z,6.88
2022-11-14T21:10:47.018Z,6.40
2022-11-14T21:15:48.761Z,7.20
2022-11-14T21:21:02.177Z,6.55
2022-11-14T21:26:11.792Z,7.07
2022-11-14T21:31:17.809Z,8.30
2022-11-14T21:36:43.959Z,8.07
2022-11-14T21:41:42.566Z,6.88
2022-11-14T21:46:48.800Z,6.70
2022-11-14T21:51:50.980Z,6.80
2022-11-14T21:56:52.768Z,7.40
2022-11-14T22:02:13.376Z,6.57
2022-11-14T22:07:15.721Z,6.70
2022-11-14T22:12:17.510Z,6.88
2022-11-14T22:17:19.286Z,7.22
2022-11-14T22:22:21.151Z,6.38
2022-11-14T22:27:22.893Z,6.13
2022-11-14T22:32:24.714Z,6.45
2022-11-14T22:37:26.431Z,6.70
2022-11-14T22:42:28.227Z,6.63
2022-11-14T22:47:30.358Z,6.90
2022-11-14T22:52:32.129Z,6.72
2022-11-14T22:57:34.012Z,7.05
2022-11-14T23:02:36.057Z,6.82
2022-11-14T23:07:38.003Z,7.20
2022-11-14T23:12:39.968Z,7.30
2022-11-14T23:17:41.841Z,7.30
2022-11-14T23:22:43.639Z,7.05
2022-11-14T23:27:45.399Z,7.10
2022-11-14T23:32:47.395Z,7.03
2022-11-14T23:37:49.139Z,7.18
2022-11-14T23:42:50.998Z,7.50
2022-11-14T23:47:52.763Z,6.97
2022-11-14T23:52:54.529Z,7.00
2022-11-14T23:57:56.456Z,7.47
